地図

経路データ

SID SEASON NUMBER BASIN SUBBASIN NAME ISO_TIME NATURE LAT LON WMO_WIND WMO_PRES WMO_AGENCY TRACK_TYPE DIST2LAND LANDFALL IFLAG USA_AGENCY USA_ATCF_ID USA_LAT USA_LON USA_RECORD USA_STATUS USA_WIND USA_PRES USA_SSHS USA_R34_NE USA_R34_SE USA_R34_SW USA_R34_NW USA_R50_NE USA_R50_SE USA_R50_SW USA_R50_NW USA_R64_NE USA_R64_SE USA_R64_SW USA_R64_NW USA_POCI USA_ROCI USA_RMW USA_EYE TOKYO_LAT TOKYO_LON TOKYO_GRADE TOKYO_WIND TOKYO_PRES TOKYO_R50_DIR TOKYO_R50_LONG TOKYO_R50_SHORT TOKYO_R30_DIR TOKYO_R30_LONG TOKYO_R30_SHORT TOKYO_LAND CMA_LAT CMA_LON CMA_CAT CMA_WIND CMA_PRES HKO_LAT HKO_LON HKO_CAT HKO_WIND HKO_PRES NEWDELHI_LAT NEWDELHI_LON NEWDELHI_GRADE NEWDELHI_WIND NEWDELHI_PRES NEWDELHI_CI NEWDELHI_DP NEWDELHI_POCI REUNION_LAT REUNION_LON REUNION_TYPE REUNION_WIND REUNION_PRES REUNION_TNUM REUNION_CI REUNION_RMW REUNION_R34_NE REUNION_R34_SE REUNION_R34_SW REUNION_R34_NW REUNION_R50_NE REUNION_R50_SE REUNION_R50_SW REUNION_R50_NW REUNION_R64_NE REUNION_R64_SE REUNION_R64_SW REUNION_R64_NW BOM_LAT BOM_LON BOM_TYPE BOM_WIND BOM_PRES BOM_TNUM BOM_CI BOM_RMW BOM_R34_NE BOM_R34_SE BOM_R34_SW BOM_R34_NW BOM_R50_NE BOM_R50_SE BOM_R50_SW BOM_R50_NW BOM_R64_NE BOM_R64_SE BOM_R64_SW BOM_R64_NW BOM_ROCI BOM_POCI BOM_EYE BOM_POS_METHOD BOM_PRES_METHOD NADI_LAT NADI_LON NADI_CAT NADI_WIND NADI_PRES WELLINGTON_LAT WELLINGTON_LON WELLINGTON_WIND WELLINGTON_PRES DS824_LAT DS824_LON DS824_STAGE DS824_WIND DS824_PRES TD9636_LAT TD9636_LON TD9636_STAGE TD9636_WIND TD9636_PRES TD9635_LAT TD9635_LON TD9635_WIND TD9635_PRES TD9635_ROCI NEUMANN_LAT NEUMANN_LON NEUMANN_CLASS NEUMANN_WIND NEUMANN_PRES MLC_LAT MLC_LON MLC_CLASS MLC_WIND MLC_PRES USA_GUST BOM_GUST BOM_GUST_PER REUNION_GUST REUNION_GUST_PER USA_SEAHGT USA_SEARAD_NE USA_SEARAD_SE USA_SEARAD_SW USA_SEARAD_NW STORM_SPEED STORM_DIR
1955359S12158 1956 104 SP EA NOT_NAMED 1955-12-24 12:00:00 TS -11.5000 158.400 main 244 244 O________OO___ jtwc_sh SH051956 -11.5000 158.400 -1 -11.5000 158.400 TC -11.5000 158.400 4 3 157
1955359S12158 1956 104 SP EA NOT_NAMED 1955-12-24 15:00:00 TS -11.6318 158.451 main 246 246 P________PP___ SH051956 -11.6250 158.450 -1 -11.6250 158.450 TC -11.6454 158.453 4 3 162
1955359S12158 1956 104 SP EA NOT_NAMED 1955-12-24 18:00:00 TS -11.8109 158.502 main 265 265 O________OP___ jtwc_sh SH051956 -11.8000 158.500 -1 -11.8000 158.500 TC -11.8326 158.505 4 5 168
1955359S12158 1956 104 SP EA NOT_NAMED 1955-12-24 21:00:00 TS -12.0845 158.551 main 289 289 P________PP___ SH051956 -12.0750 158.550 -1 -12.0750 158.550 TC -12.1035 158.554 4 7 172
1955359S12158 1956 104 SP EA NOT_NAMED 1955-12-25 00:00:00 TS -12.5000 158.600 main 329 329 O________OO___ jtwc_sh SH051956 -12.5000 158.600 -1 -12.5000 158.600 TC -12.5000 158.600 4 10 175
1955359S12158 1956 104 SP EA NOT_NAMED 1955-12-25 03:00:00 TS -13.0902 158.647 main 392 392 P________PP___ SH051956 -13.1125 158.650 -1 -13.1125 158.650 TC -13.0456 158.642 4 13 176
1955359S12158 1956 104 SP EA NOT_NAMED 1955-12-25 06:00:00 TS -13.7633 158.695 main 463 463 O________OP___ jtwc_sh SH051956 -13.8000 158.700 -1 -13.8000 158.700 TC -13.6900 158.685 4 13 176
1955359S12158 1956 104 SP EA NOT_NAMED 1955-12-25 09:00:00 TS -14.4081 158.745 main 523 523 P________PP___ SH051956 -14.4300 158.750 -1 -14.4300 158.750 TC -14.3644 158.736 4 13 175
1955359S12158 1956 104 SP EA NOT_NAMED 1955-12-25 12:00:00 TS -15.0000 158.800 main 571 571 O________OO___ jtwc_sh SH051956 -15.0000 158.800 -1 -15.0000 158.800 TC -15.0000 158.800 4 11 175
1955359S12158 1956 104 SP EA NOT_NAMED 1955-12-25 15:00:00 TS -15.4790 158.844 main 618 618 P________PP___ SH051956 -15.4725 158.835 -1 -15.4725 158.835 TC -15.4920 158.862 4 9 173
1955359S12158 1956 104 SP EA NOT_NAMED 1955-12-25 18:00:00 TS -15.9124 158.914 main 651 651 O________OP___ jtwc_sh SH051956 -15.9000 158.900 -1 -15.9000 158.900 TC -15.9372 158.941 4 9 168
1955359S12158 1956 104 SP EA NOT_NAMED 1955-12-25 21:00:00 TS -16.3496 159.035 main 686 639 P________PP___ SH051956 -16.3425 159.028 -1 -16.3425 159.028 TC -16.3639 159.049 4 9 163
1955359S12158 1956 104 SP EA NOT_NAMED 1955-12-26 00:00:00 TS -16.8000 159.200 main 639 589 O________OO___ jtwc_sh SH051956 -16.8000 159.200 -1 -16.8000 159.200 TC -16.8000 159.200 4 10 161
1955359S12158 1956 104 SP EA NOT_NAMED 1955-12-26 03:00:00 TS -17.2956 159.383 main 589 546 P________PP___ SH051956 -17.2924 159.378 -1 -17.2924 159.378 TC -17.3018 159.395 4 10 156
1955359S12158 1956 104 SP EA NOT_NAMED 1955-12-26 06:00:00 TS -17.7507 159.648 main 540 481 O________OP___ jtwc_sh SH051956 -17.8000 159.600 -1 -17.8000 159.600 TC -17.8149 159.632 4 11 148
1955359S12158 1956 104 SP EA NOT_NAMED 1955-12-26 09:00:00 TS -18.1889 159.971 main 481 432 P________PP___ SH051956 -18.3075 159.885 -1 -18.3075 159.885 TC -18.3206 159.904 4 11 143
1955359S12158 1956 104 SP MM NOT_NAMED 1955-12-26 12:00:00 TS -18.6005 160.319 main 432 384 O________OO___ jtwc_sh SH051956 -18.8000 160.200 -1 -18.8000 160.200 TC -18.8000 160.200 4 10 142
1955359S12158 1956 104 SP MM NOT_NAMED 1955-12-26 15:00:00 TS -18.9951 160.626 main 384 339 P________PP___ SH051956 -19.2724 160.493 -1 -19.2724 160.493 TC -19.2828 160.374 4 10 145
1955359S12158 1956 104 SP MM NOT_NAMED 1955-12-26 18:00:00 TS -19.4082 160.921 main 339 297 O________OP___ jtwc_sh SH051956 -19.7000 160.800 -1 -19.7000 160.800 TC -19.7300 160.589 4 10 145
1955359S12158 1956 104 SP MM NOT_NAMED 1955-12-26 21:00:00 TS -19.7955 161.218 main 297 251 P________PP___ SH051956 -20.1090 161.045 -1 -20.1090 161.045 TC -20.1125 160.933 4 10 138
1955359S12158 1956 104 SP MM NOT_NAMED 1955-12-27 00:00:00 TS -20.1600 161.640 main 250 167 O________OO___ jtwc_sh SH051956 -20.4000 161.500 -1 -20.4000 161.500 TC -20.4000 161.500 4 13 117
1955359S12158 1956 104 SP MM NOT_NAMED 1955-12-27 03:00:00 TS -20.3747 162.447 main 167 56 P________PP___ SH051956 -20.4950 162.366 -1 -20.4950 162.366 TC -20.4709 162.461 4 18 100
1955359S12158 1956 104 SP MM NOT_NAMED 1955-12-27 06:00:00 TS -20.4633 163.525 main 56 0 O________OP___ jtwc_sh SH051956 -20.5000 163.500 -1 -20.5000 163.500 TC -20.4556 163.630 4 22 93
1955359S12158 1956 104 SP MM NOT_NAMED 1955-12-27 09:00:00 TS -20.4712 164.802 main 10 10 P________PP___ SH051956 -20.4760 164.774 -1 -20.4760 164.774 TC -20.4615 164.859 4 23 93
1955359S12158 1956 104 SP MM NOT_NAMED 1955-12-27 12:00:00 TS -20.6000 166.000 main 76 76 O________OO___ jtwc_sh SH051956 -20.6000 166.000 -1 -20.6000 166.000 TC -20.6000 166.000 4 21 107
1955359S12158 1956 104 SP MM NOT_NAMED 1955-12-27 15:00:00 TS -21.0610 166.928 main 84 84 P________PP___ SH051956 -21.0665 166.939 -1 -21.0665 166.939 TC -21.0500 166.906 4 19 124
1955359S12158 1956 104 SP MM NOT_NAMED 1955-12-27 18:00:00 TS -21.6808 167.701 main 91 91 O________OP___ jtwc_sh SH051956 -21.7000 167.700 -1 -21.7000 167.700 TC -21.6423 167.704 4 19 132
1955359S12158 1956 104 SP MM NOT_NAMED 1955-12-27 21:00:00 TS -22.3109 168.402 main 143 143 P________PP___ SH051956 -22.3221 168.403 -1 -22.3221 168.403 TC -22.2885 168.401 4 17 135
1955359S12158 1956 104 SP MM NOT_NAMED 1955-12-28 00:00:00 TS -22.9000 169.000 main 215 215 O________OO___ jtwc_sh SH051956 -22.9000 169.000 -1 -22.9000 169.000 TC -22.9000 169.000 4 15 134
1955359S12158 1956 104 SP MM NOT_NAMED 1955-12-28 03:00:00 TS -23.3334 169.550 main 279 279 P________PP___ SH051956 -23.3298 169.546 -1 -23.3298 169.546 TC -23.3406 169.557 4 12 131
1955359S12158 1956 104 SP MM NOT_NAMED 1955-12-28 06:00:00 TS -23.7119 170.006 main 344 344 O________OP___ jtwc_sh SH051956 -23.7000 170.000 -1 -23.7000 170.000 TC -23.7357 170.018 4 11 135
1955359S12158 1956 104 SP MM NOT_NAMED 1955-12-28 09:00:00 TS -24.0992 170.385 main 401 401 P________PP___ SH051956 -24.0923 170.380 -1 -24.0923 170.380 TC -24.1130 170.394 4 10 141
1955359S12158 1956 104 SP MM NOT_NAMED 1955-12-28 12:00:00 TS -24.5000 170.700 main 450 450 O________OO___ jtwc_sh SH051956 -24.5000 170.700 -1 -24.5000 170.700 TC -24.5000 170.700 4 10 145
1955359S12158 1956 104 SP MM NOT_NAMED 1955-12-28 15:00:00 TS -24.9387 171.039 main 500 500 P________PP___ SH051956 -24.9425 171.037 -1 -24.9425 171.037 TC -24.9310 171.041 4 11 148
1955359S12158 1956 104 SP MM NOT_NAMED 1955-12-28 18:00:00 TS -25.3922 171.303 main 557 557 O________OP___ jtwc_sh SH051956 -25.4000 171.300 -1 -25.4000 171.300 TC -25.3767 171.308 4 10 156
1955359S12158 1956 104 SP MM NOT_NAMED 1955-12-28 21:00:00 TS -25.8396 171.474 main 601 601 P________PP___ SH051956 -25.8424 171.475 -1 -25.8424 171.475 TC -25.8341 171.472 4 9 169
1955359S12158 1956 104 SP MM NOT_NAMED 1955-12-29 00:00:00 TS -26.3000 171.500 main 637 637 O________OO___ jtwc_sh SH051956 -26.3000 171.500 -1 -26.3000 171.500 TC -26.3000 171.500 4 10 185
1955359S12158 1956 104 SP MM NOT_NAMED 1955-12-29 03:00:00 TS -26.7932 171.376 main 669 669 P________PP___ SH051956 -26.7999 171.368 -1 -26.7999 171.368 TC -26.7797 171.391 4 11 199
1955359S12158 1956 104 SP MM NOT_NAMED 1955-12-29 06:00:00 TS -27.2882 171.116 main 692 692 O________OP___ jtwc_sh SH051956 -27.3000 171.100 -1 -27.3000 171.100 TC -27.2646 171.147 4 11 208
1955359S12158 1956 104 SP MM NOT_NAMED 1955-12-29 09:00:00 TS -27.7574 170.788 main 719 714 P________PP___ SH051956 -27.7650 170.780 -1 -27.7650 170.780 TC -27.7422 170.803 4 11 215
1955359S12158 1956 104 SP MM NOT_NAMED 1955-12-29 12:00:00 TS -28.2000 170.400 main 733 699 O________OO___ jtwc_sh SH051956 -28.2000 170.400 -1 -28.2000 170.400 TC -28.2000 170.400 4 11 219
1955359S12158 1956 104 SP MM NOT_NAMED 1955-12-29 15:00:00 TS -28.6146 170.005 main 702 675 P________PP___ SH051956 -28.6073 170.022 -1 -28.6073 170.022 TC -28.6291 169.970 4 11 222
1955359S12158 1956 104 SP MM NOT_NAMED 1955-12-29 18:00:00 TS -29.0112 169.575 main 675 652 O________OP___ jtwc_sh SH051956 -29.0000 169.600 -1 -29.0000 169.600 TC -29.0337 169.524 4 11 225
1955359S12158 1956 104 SP MM NOT_NAMED 1955-12-29 21:00:00 TS -29.4058 169.101 main 657 639 P________PP___ SH051956 -29.3980 169.118 -1 -29.3980 169.118 TC -29.4215 169.066 4 12 227
1955359S12158 1956 104 SP MM NOT_NAMED 1955-12-30 00:00:00 TS -29.8000 168.600 main 644 O________OO___ jtwc_sh SH051956 -29.8000 168.600 -1 -29.8000 168.600 TC -29.8000 168.600 4 12 228

デジタル台風データ・検索

IBTrACS Databaseについて

本データベースは、米国NOAAが公開する1842年以降の世界の熱帯低気圧のベストトラックデータアーカイブInternational Best Track Archive for Climate Stewardship (IBTrACS)を、ウェブで閲覧しやすい形式に変換したものです。

最終更新日:2021-10-08